Time;durP1;ratioP1;P1;durP2;ratioP2;P2;SDS_P1;SDS_P2;PMS_P1;PMS_P2;Temp;Humidity;BMP_temperature;BMP_pressure;BME280_temperature;BME280_humidity;BME280_pressure;Samples;Min_cycle;Max_cycle;Signal;HPM_P1;HPM_P2
2021/03/30 00:00:42;;;;;;;3.10;1.67;;;8.40;61.50;;;;;;5092686;28;20471;-79
2021/03/30 00:03:08;;;;;;;2.70;1.70;;;8.40;61.60;;;;;;5093213;28;20950;-80
2021/03/30 00:05:34;;;;;;;2.67;2.00;;;8.30;61.40;;;;;;5096806;28;20451;-79
2021/03/30 00:08:01;;;;;;;4.13;3.03;;;8.30;62.00;;;;;;5096011;28;20978;-80
2021/03/30 00:10:34;;;;;;;2.73;2.53;;;8.20;62.80;;;;;;5096116;28;20431;-79
2021/03/30 00:13:00;;;;;;;4.93;2.53;;;8.20;63.60;;;;;;5096088;28;20436;-79
2021/03/30 00:15:26;;;;;;;2.63;2.40;;;8.20;64.30;;;;;;5095958;28;20444;-79
2021/03/30 00:17:53;;;;;;;6.10;3.00;;;8.20;65.20;;;;;;5095851;28;20471;-79
2021/03/30 00:20:20;;;;;;;6.23;3.30;;;8.20;65.50;;;;;;5095472;28;20997;-79
2021/03/30 00:22:46;;;;;;;4.90;2.70;;;8.10;65.40;;;;;;5096737;28;20436;-80
2021/03/30 00:25:13;;;;;;;3.10;2.63;;;8.10;65.50;;;;;;5096065;28;20440;-80
2021/03/30 00:27:41;;;;;;;4.27;3.07;;;8.10;66.10;;;;;;5096012;28;20787;-80
2021/03/30 00:30:09;;;;;;;3.43;2.20;;;8.10;66.40;;;;;;5095684;28;20466;-80
2021/03/30 00:32:36;;;;;;;3.10;2.73;;;8.10;66.50;;;;;;5095898;28;20430;-80
2021/03/30 00:35:03;;;;;;;2.10;1.90;;;8.10;64.90;;;;;;5095341;28;20455;-80
2021/03/30 00:37:29;;;;;;;4.03;2.10;;;8.00;64.30;;;;;;5095227;28;21017;-80
2021/03/30 00:39:55;;;;;;;3.93;2.80;;;8.00;65.20;;;;;;5095591;28;20475;-80
2021/03/30 00:42:24;;;;;;;5.20;2.40;;;8.00;65.30;;;;;;5095380;28;20459;-80
2021/03/30 00:44:51;;;;;;;3.10;1.90;;;7.90;64.00;;;;;;5095874;28;20447;-80
2021/03/30 00:47:20;;;;;;;5.10;1.60;;;7.90;63.40;;;;;;5076864;28;556567;-80
2021/03/30 00:49:48;;;;;;;2.80;1.80;;;7.80;62.60;;;;;;5097012;28;20256;-80
2021/03/30 00:52:14;;;;;;;1.83;1.37;;;7.80;63.30;;;;;;5096943;28;20810;-79
2021/03/30 00:54:41;;;;;;;1.80;1.70;;;7.70;63.60;;;;;;5096573;28;20819;-79
2021/03/30 00:57:08;;;;;;;1.73;1.43;;;7.70;63.20;;;;;;5096297;28;20943;-79
2021/03/30 00:59:34;;;;;;;2.90;1.67;;;7.70;63.20;;;;;;5096672;28;20471;-80
2021/03/30 01:02:02;;;;;;;2.17;2.07;;;7.60;62.00;;;;;;5096302;28;20983;-80
2021/03/30 01:04:28;;;;;;;3.20;2.07;;;7.60;62.10;;;;;;5096779;28;20444;-79
2021/03/30 01:06:55;;;;;;;2.60;1.97;;;7.60;63.00;;;;;;5096705;28;20440;-80
2021/03/30 01:09:31;;;;;;;3.13;2.67;;;7.60;63.60;;;;;;5096103;28;20998;-79
2021/03/30 01:12:23;;;;;;;4.27;2.27;;;7.60;64.40;;;;;;5096256;28;20429;-80
2021/03/30 01:15:00;;;;;;;3.23;2.90;;;7.60;65.40;;;;;;5095870;28;20413;-80
2021/03/30 01:17:37;;;;;;;2.27;2.07;;;7.60;65.60;;;;;;5096037;28;20485;-80
2021/03/30 01:20:33;;;;;;;3.63;2.70;;;7.60;66.00;;;;;;5096588;28;20497;-79
2021/03/30 01:23:29;;;;;;;2.20;1.97;;;7.60;65.70;;;;;;5096255;28;20823;-80
2021/03/30 01:26:06;;;;;;;3.57;2.50;;;7.60;66.00;;;;;;5096390;28;20405;-81
2021/03/30 01:28:47;;;;;;;2.93;2.73;;;7.60;66.00;;;;;;5095575;28;20974;-80
2021/03/30 01:31:15;;;;;;;4.47;2.20;;;7.50;66.70;;;;;;5096602;28;20428;-80
2021/03/30 01:33:43;;;;;;;3.57;2.93;;;7.50;67.60;;;;;;5095966;28;20436;-80
2021/03/30 01:36:13;;;;;;;4.00;2.77;;;7.50;67.70;;;;;;5095950;28;20959;-80
2021/03/30 01:38:42;;;;;;;2.97;2.03;;;7.50;68.60;;;;;;5095530;28;20458;-80
2021/03/30 01:41:10;;;;;;;3.23;2.20;;;7.40;67.40;;;;;;5095618;28;20483;-79
2021/03/30 01:43:36;;;;;;;4.60;2.80;;;7.40;67.90;;;;;;5095465;28;20413;-80
2021/03/30 01:46:03;;;;;;;2.43;2.27;;;7.40;68.70;;;;;;5095941;28;20491;-79
2021/03/30 01:48:30;;;;;;;3.57;3.27;;;7.30;67.90;;;;;;5095739;28;20468;-79
2021/03/30 01:50:57;;;;;;;4.17;2.50;;;7.30;68.20;;;;;;5095677;28;20444;-80
2021/03/30 01:53:26;;;;;;;2.70;2.50;;;7.30;69.70;;;;;;5095590;28;20451;-80
2021/03/30 01:55:54;;;;;;;5.20;2.43;;;7.20;69.70;;;;;;5095652;28;20432;-79
2021/03/30 01:58:21;;;;;;;2.70;2.50;;;7.20;69.40;;;;;;5095107;28;20857;-80
2021/03/30 02:00:49;;;;;;;3.37;2.97;;;7.10;69.60;;;;;;5095362;28;20475;-80
2021/03/30 02:03:17;;;;;;;5.07;3.57;;;7.10;70.70;;;;;;5095257;28;20412;-80
2021/03/30 02:05:45;;;;;;;8.30;3.83;;;7.10;71.10;;;;;;5095145;28;20903;-79
2021/03/30 02:08:13;;;;;;;4.63;2.80;;;7.10;71.60;;;;;;5094932;28;20474;-80
2021/03/30 02:10:48;;;;;;;7.90;3.40;;;7.10;72.40;;;;;;5095182;28;20485;-80
2021/03/30 02:13:23;;;;;;;8.30;3.60;;;7.00;72.90;;;;;;5095259;28;20432;-80
2021/03/30 02:15:54;;;;;;;4.97;3.63;;;6.90;72.60;;;;;;5095460;28;20424;-80
2021/03/30 02:18:22;;;;;;;5.90;3.30;;;6.90;73.00;;;;;;5095038;28;20517;-79
2021/03/30 02:20:57;;;;;;;4.33;3.57;;;6.90;74.00;;;;;;5094898;28;20518;-80
2021/03/30 02:23:25;;;;;;;5.20;3.40;;;6.90;73.10;;;;;;5095108;28;20427;-80
2021/03/30 02:25:55;;;;;;;5.17;2.97;;;6.80;73.70;;;;;;5093957;28;20413;-80
2021/03/30 02:28:24;;;;;;;6.33;2.60;;;6.90;75.00;;;;;;5095022;28;20528;-79
2021/03/30 02:30:52;;;;;;;3.97;3.57;;;6.80;74.90;;;;;;5094618;28;20806;-79
2021/03/30 02:33:21;;;;;;;6.50;3.57;;;6.80;75.30;;;;;;5094568;28;20466;-79
2021/03/30 02:35:49;;;;;;;4.17;3.20;;;6.80;75.60;;;;;;5094683;28;20440;-80
2021/03/30 02:38:16;;;;;;;4.63;3.27;;;6.70;74.80;;;;;;5094459;28;20479;-80
2021/03/30 02:40:45;;;;;;;4.43;3.30;;;6.70;74.50;;;;;;5094430;28;20491;-80
2021/03/30 02:43:13;;;;;;;4.30;2.90;;;6.70;74.50;;;;;;5094832;28;20504;-79
2021/03/30 02:45:41;;;;;;;4.53;3.07;;;6.60;75.70;;;;;;5094856;28;20432;-80
2021/03/30 02:48:09;;;;;;;3.00;2.30;;;6.70;75.60;;;;;;5095446;28;20521;-80
2021/03/30 02:50:37;;;;;;;2.90;2.70;;;6.70;73.40;;;;;;5094107;28;20440;-80
2021/03/30 02:53:04;;;;;;;4.50;2.70;;;6.70;73.10;;;;;;5095073;28;20830;-79
2021/03/30 02:55:36;;;;;;;3.23;2.20;;;6.70;73.20;;;;;;5094247;28;20474;-80
2021/03/30 02:58:05;;;;;;;3.80;2.27;;;6.70;73.00;;;;;;5094380;28;20476;-80
2021/03/30 03:00:31;;;;;;;6.37;2.20;;;6.70;73.30;;;;;;5094475;28;20931;-80
2021/03/30 03:02:59;;;;;;;2.27;2.07;;;6.60;72.90;;;;;;5094323;28;20914;-79
2021/03/30 03:05:25;;;;;;;3.50;2.67;;;6.60;73.80;;;;;;5094865;28;20520;-80
2021/03/30 03:07:52;;;;;;;5.80;2.80;;;6.60;74.40;;;;;;5093878;28;20464;-80
2021/03/30 03:10:19;;;;;;;3.20;2.60;;;6.60;74.70;;;;;;5093974;28;20448;-80
2021/03/30 03:12:47;;;;;;;5.63;2.40;;;6.60;74.60;;;;;;5094162;28;20455;-80
2021/03/30 03:15:16;;;;;;;2.70;2.50;;;6.50;74.60;;;;;;5093843;28;20903;-79
2021/03/30 03:17:43;;;;;;;3.57;2.70;;;6.50;75.10;;;;;;5093830;28;20455;-80
2021/03/30 03:20:11;;;;;;;3.40;2.63;;;6.50;75.20;;;;;;5094305;28;20441;-79
2021/03/30 03:22:38;;;;;;;2.80;2.50;;;6.40;74.90;;;;;;5093738;28;20480;-79
2021/03/30 03:25:07;;;;;;;2.70;2.50;;;6.40;75.10;;;;;;5093831;28;20493;-80
2021/03/30 03:27:34;;;;;;;2.03;1.83;;;6.40;74.90;;;;;;5093522;28;20965;-80
2021/03/30 03:30:05;;;;;;;2.10;1.90;;;6.40;74.40;;;;;;5094265;28;20459;-80
2021/03/30 03:32:32;;;;;;;1.97;1.77;;;6.30;74.70;;;;;;5094342;28;20439;-79
2021/03/30 03:34:58;;;;;;;2.20;2.10;;;6.40;74.50;;;;;;5093841;28;20412;-80
2021/03/30 03:37:24;;;;;;;2.60;2.40;;;6.30;74.00;;;;;;5093851;28;20447;-79
2021/03/30 03:39:51;;;;;;;6.00;2.60;;;6.30;74.10;;;;;;5093663;28;20880;-80
2021/03/30 03:42:17;;;;;;;2.47;2.13;;;6.30;74.30;;;;;;5094403;28;20472;-80
2021/03/30 03:44:43;;;;;;;2.57;2.37;;;6.30;75.10;;;;;;5093681;28;20851;-80
2021/03/30 03:47:11;;;;;;;5.30;2.60;;;6.30;75.20;;;;;;5094769;28;20468;-80
2021/03/30 03:49:37;;;;;;;2.47;2.27;;;6.20;74.30;;;;;;5094720;28;20455;-80
2021/03/30 03:52:08;;;;;;;2.07;1.97;;;6.20;73.10;;;;;;5093213;28;20470;-79
2021/03/30 03:54:36;;;;;;;2.63;2.43;;;6.20;73.90;;;;;;5093503;28;20934;-79
2021/03/30 03:57:09;;;;;;;2.40;2.00;;;6.20;75.20;;;;;;5093422;28;20815;-79
2021/03/30 03:59:36;;;;;;;2.70;2.50;;;6.20;75.50;;;;;;5093372;28;20832;-79
2021/03/30 04:02:11;;;;;;;3.00;2.73;;;6.20;75.40;;;;;;5094129;28;20897;-79
2021/03/30 04:04:48;;;;;;;4.53;2.70;;;6.20;77.20;;;;;;5093848;28;20493;-79
2021/03/30 04:07:18;;;;;;;4.27;2.67;;;6.20;76.60;;;;;;5093375;28;20424;-79
2021/03/30 04:09:50;;;;;;;3.30;2.57;;;6.10;76.90;;;;;;5093010;28;20968;-79
2021/03/30 04:12:19;;;;;;;3.83;2.90;;;6.10;77.50;;;;;;5093311;28;20432;-80
2021/03/30 04:14:45;;;;;;;4.10;3.20;;;6.00;77.20;;;;;;5093959;28;20454;-80
2021/03/30 04:17:14;;;;;;;6.87;3.80;;;6.00;77.20;;;;;;5093683;28;20437;-80
2021/03/30 04:19:42;;;;;;;3.87;3.40;;;6.00;77.70;;;;;;5093282;28;20518;-79
2021/03/30 04:22:09;;;;;;;3.97;2.97;;;6.10;79.50;;;;;;5093361;28;20541;-79
2021/03/30 04:24:35;;;;;;;4.80;3.53;;;6.10;79.00;;;;;;5093329;28;20941;-79
2021/03/30 04:27:02;;;;;;;4.13;3.13;;;6.10;80.10;;;;;;5093032;28;20409;-79
2021/03/30 04:29:29;;;;;;;7.40;3.27;;;6.10;80.10;;;;;;5092973;28;20456;-79
2021/03/30 04:31:55;;;;;;;3.83;3.30;;;6.10;79.20;;;;;;5092891;28;20446;-80
2021/03/30 04:34:22;;;;;;;5.87;3.67;;;6.10;80.30;;;;;;5092952;28;20456;-80
2021/03/30 04:36:49;;;;;;;3.60;3.20;;;6.10;80.90;;;;;;5092987;28;20448;-80
2021/03/30 04:39:15;;;;;;;4.70;2.97;;;6.10;81.60;;;;;;5094393;28;20464;-79
2021/03/30 04:41:41;;;;;;;6.53;3.47;;;6.10;80.30;;;;;;5093101;28;20480;-79
2021/03/30 04:44:08;;;;;;;2.63;2.43;;;6.00;81.50;;;;;;5093856;28;20974;-80
2021/03/30 04:46:34;;;;;;;3.33;3.03;;;6.00;81.30;;;;;;5096169;28;20480;-79
2021/03/30 04:49:00;;;;;;;5.50;3.40;;;6.00;81.70;;;;;;5096510;28;20460;-79
2021/03/30 04:51:27;;;;;;;5.00;3.57;;;6.00;82.20;;;;;;5099235;28;20455;-79
2021/03/30 04:53:54;;;;;;;3.60;3.30;;;5.90;82.80;;;;;;5096971;28;20454;-79
2021/03/30 04:56:20;;;;;;;3.40;3.10;;;5.90;82.60;;;;;;5096596;28;20428;-79
2021/03/30 04:58:46;;;;;;;5.07;3.40;;;5.90;83.50;;;;;;5096435;28;20472;-79
2021/03/30 05:01:12;;;;;;;5.30;3.07;;;5.80;83.90;;;;;;5096411;28;20487;-79
2021/03/30 05:03:39;;;;;;;6.00;3.57;;;5.80;85.40;;;;;;5096456;28;20447;-79
2021/03/30 05:06:05;;;;;;;8.40;4.00;;;5.80;85.20;;;;;;5096404;28;20412;-79
2021/03/30 05:08:32;;;;;;;4.10;3.30;;;5.80;85.90;;;;;;5098195;28;20521;-79
2021/03/30 05:10:59;;;;;;;5.27;3.80;;;5.70;86.30;;;;;;5099002;28;20450;-79
2021/03/30 05:13:26;;;;;;;6.00;4.10;;;5.80;86.90;;;;;;5098435;28;20501;-79
2021/03/30 05:15:52;;;;;;;5.20;3.37;;;5.80;87.40;;;;;;5096266;28;20436;-79
2021/03/30 05:18:19;;;;;;;3.47;3.17;;;5.80;87.20;;;;;;5096363;28;20555;-79
2021/03/30 05:20:45;;;;;;;6.77;3.63;;;5.80;88.80;;;;;;5096103;28;20448;-79
2021/03/30 05:23:11;;;;;;;8.23;3.37;;;5.70;88.00;;;;;;5096141;28;20444;-79
2021/03/30 05:25:38;;;;;;;4.10;3.20;;;5.70;88.30;;;;;;5096388;28;20431;-79
2021/03/30 05:28:06;;;;;;;4.13;3.30;;;5.80;89.20;;;;;;5096053;28;20518;-79
2021/03/30 05:30:33;;;;;;;2.97;2.77;;;5.80;90.20;;;;;;5098287;28;20448;-79
2021/03/30 05:32:59;;;;;;;8.47;5.50;;;5.80;90.10;;;;;;5096362;28;20451;-79
2021/03/30 05:35:26;;;;;;;9.57;4.20;;;5.80;90.10;;;;;;5096011;28;20413;-79
2021/03/30 05:37:52;;;;;;;4.43;3.83;;;5.80;90.40;;;;;;5096727;28;20472;-79
2021/03/30 05:40:20;;;;;;;3.43;3.13;;;5.90;90.00;;;;;;5096053;28;20439;-79
2021/03/30 05:42:47;;;;;;;5.00;3.37;;;5.90;90.40;;;;;;5095987;28;20993;-80
2021/03/30 05:45:16;;;;;;;5.37;3.80;;;5.90;90.80;;;;;;5095482;28;20935;-79
2021/03/30 05:47:43;;;;;;;4.60;3.80;;;6.00;90.90;;;;;;5095384;28;20487;-79
2021/03/30 05:50:12;;;;;;;5.83;3.50;;;6.00;91.10;;;;;;5095643;28;20448;-79
2021/03/30 05:52:46;;;;;;;4.20;3.67;;;6.00;91.50;;;;;;5095685;28;20535;-79
2021/03/30 05:55:19;;;;;;;5.33;4.00;;;6.00;91.50;;;;;;5096316;28;20887;-79
2021/03/30 05:57:46;;;;;;;9.33;4.00;;;6.10;91.50;;;;;;5096353;28;20435;-79
2021/03/30 06:00:15;;;;;;;5.07;4.13;;;6.10;91.50;;;;;;5095416;28;20448;-79
2021/03/30 06:02:44;;;;;;;7.60;4.60;;;6.20;91.70;;;;;;5078453;28;20479;-79
2021/03/30 06:05:14;;;;;;;4.30;3.90;;;6.20;91.90;;;;;;5095293;28;20444;-79
2021/03/30 06:07:41;;;;;;;4.37;3.73;;;6.30;91.90;;;;;;5095191;28;20436;-79
2021/03/30 06:10:08;;;;;;;4.67;3.67;;;6.40;92.10;;;;;;5095266;28;20452;-79
2021/03/30 06:12:34;;;;;;;5.57;3.57;;;6.40;92.50;;;;;;5094765;28;20448;-79
2021/03/30 06:15:03;;;;;;;7.37;4.30;;;6.50;92.40;;;;;;5095006;28;20448;-79
2021/03/30 06:17:40;;;;;;;6.17;4.33;;;6.50;93.10;;;;;;5094931;28;20436;-79
2021/03/30 06:20:09;;;;;;;4.77;4.33;;;6.70;93.80;;;;;;5094988;28;20439;-79
2021/03/30 06:22:47;;;;;;;8.00;4.97;;;6.70;93.80;;;;;;5076826;28;20476;-79
2021/03/30 06:25:33;;;;;;;11.17;7.73;;;7.10;94.30;;;;;;5094852;28;20439;-79
2021/03/30 06:28:13;;;;;;;7.00;5.10;;;7.80;92.30;;;;;;5094777;28;20837;-80
2021/03/30 06:30:53;;;;;;;6.90;4.30;;;8.90;88.50;;;;;;5094628;28;20411;-79
2021/03/30 06:33:20;;;;;;;5.50;5.00;;;9.90;83.30;;;;;;5094423;28;20931;-79
2021/03/30 06:35:47;;;;;;;6.53;4.87;;;11.00;77.60;;;;;;5095091;28;20455;-79
2021/03/30 06:38:13;;;;;;;4.60;4.20;;;12.00;74.10;;;;;;5094538;28;20554;-79
2021/03/30 06:40:41;;;;;;;4.63;4.20;;;12.90;69.60;;;;;;5094170;28;20432;-80
2021/03/30 06:45:58;;;;;;;4.83;4.07;;;13.30;64.60;;;;;;5093093;28;20559;-80
2021/03/30 06:48:26;;;;;;;5.70;4.40;;;12.70;65.60;;;;;;5097080;28;20546;-79
2021/03/30 06:50:52;;;;;;;4.87;4.47;;;12.00;67.10;;;;;;5094458;28;20482;-80
2021/03/30 06:53:19;;;;;;;6.93;4.23;;;11.40;68.90;;;;;;5094395;28;20424;-80
2021/03/30 06:55:47;;;;;;;7.53;4.97;;;10.90;70.70;;;;;;5094043;28;20926;-79
2021/03/30 06:58:15;;;;;;;7.60;5.33;;;10.60;72.90;;;;;;5094171;28;20460;-81
2021/03/30 07:00:41;;;;;;;4.57;3.97;;;10.40;72.40;;;;;;5094232;28;20844;-80
2021/03/30 07:03:09;;;;;;;5.50;3.60;;;10.20;72.10;;;;;;5093908;28;20436;-81
2021/03/30 07:05:41;;;;;;;5.80;4.17;;;10.20;71.50;;;;;;5094132;28;20432;-81
2021/03/30 07:08:09;;;;;;;2.80;2.40;;;10.10;72.70;;;;;;5094109;28;20554;-80
2021/03/30 07:10:37;;;;;;;3.03;2.50;;;10.20;62.70;;;;;;5094231;28;20428;-80
2021/03/30 07:13:04;;;;;;;2.83;2.63;;;10.40;63.40;;;;;;5093735;28;20458;-79
2021/03/30 07:15:31;;;;;;;6.20;4.67;;;10.50;62.20;;;;;;5094000;28;20839;-80
2021/03/30 07:18:12;;;;;;;6.77;4.60;;;10.70;68.60;;;;;;5093605;28;20819;-80
2021/03/30 07:20:43;;;;;;;5.63;4.80;;;10.70;72.00;;;;;;5093837;28;20424;-80
2021/03/30 07:23:12;;;;;;;8.53;5.10;;;10.80;72.50;;;;;;5093878;28;20439;-80
2021/03/30 07:25:50;;;;;;;6.60;5.03;;;10.80;72.00;;;;;;5093546;28;20778;-79
2021/03/30 07:28:21;;;;;;;4.23;3.90;;;10.90;72.80;;;;;;5093770;28;20829;-79
2021/03/30 07:30:54;;;;;;;6.40;4.60;;;11.00;71.80;;;;;;5093949;28;20466;-79
2021/03/30 07:33:27;;;;;;;5.03;4.27;;;11.00;72.30;;;;;;5093381;28;20904;-80
2021/03/30 07:35:57;;;;;;;8.93;4.73;;;11.10;72.40;;;;;;5093736;28;20523;-81
2021/03/30 07:38:29;;;;;;;4.40;3.93;;;11.20;71.80;;;;;;5093656;28;20475;-79
2021/03/30 07:40:56;;;;;;;7.97;4.30;;;11.30;70.90;;;;;;5093788;28;20776;-79
2021/03/30 07:43:24;;;;;;;5.20;4.77;;;11.50;71.50;;;;;;5093612;28;20880;-79
2021/03/30 07:45:53;;;;;;;4.10;3.70;;;11.50;68.90;;;;;;5093183;28;20467;-79
2021/03/30 07:48:23;;;;;;;8.73;3.77;;;11.70;68.30;;;;;;5093462;28;20471;-78
2021/03/30 07:50:55;;;;;;;3.37;3.07;;;11.80;68.20;;;;;;5093495;28;20519;-79
2021/03/30 07:53:39;;;;;;;7.57;4.97;;;12.10;65.60;;;;;;5093875;28;20797;-78
2021/03/30 07:56:06;;;;;;;5.57;4.47;;;12.40;66.10;;;;;;5093191;28;20424;-79
2021/03/30 07:58:41;;;;;;;7.30;4.40;;;12.60;66.70;;;;;;5093412;28;20487;-78
2021/03/30 08:01:07;;;;;;;7.63;5.13;;;12.80;67.30;;;;;;5093332;28;20816;-79
2021/03/30 08:03:35;;;;;;;9.30;3.60;;;13.00;64.50;;;;;;5093416;28;20434;-79
2021/03/30 08:06:27;;;;;;;3.80;3.50;;;13.20;63.80;;;;;;5093394;28;20453;-79
2021/03/30 08:08:57;;;;;;;4.17;3.17;;;13.40;63.20;;;;;;5078494;28;20529;-79
2021/03/30 08:11:46;;;;;;;6.10;3.67;;;13.60;60.70;;;;;;5093294;28;20521;-79
2021/03/30 08:14:39;;;;;;;5.33;3.83;;;14.00;59.00;;;;;;5093357;28;20415;-77
2021/03/30 08:17:08;;;;;;;4.80;3.10;;;14.30;60.80;;;;;;5093331;28;20428;-79
2021/03/30 08:19:35;;;;;;;5.17;4.03;;;14.50;60.40;;;;;;5092860;28;20791;-79
2021/03/30 08:22:03;;;;;;;5.77;3.47;;;14.60;59.50;;;;;;5092833;28;20974;-79
2021/03/30 08:24:54;;;;;;;4.13;3.73;;;14.70;59.50;;;;;;5094619;28;20440;-79
2021/03/30 08:27:37;;;;;;;4.17;3.83;;;14.90;59.30;;;;;;5097101;28;20431;-79
2021/03/30 08:30:13;;;;;;;5.60;4.03;;;15.10;57.60;;;;;;5094976;28;20455;-79
2021/03/30 08:32:44;;;;;;;3.40;3.10;;;15.20;58.10;;;;;;5097055;28;20488;-79
2021/03/30 08:35:12;;;;;;;3.80;3.33;;;15.50;55.20;;;;;;5097233;28;20432;-77
2021/03/30 08:37:41;;;;;;;5.20;4.70;;;15.60;55.30;;;;;;5096535;28;20899;-76
2021/03/30 08:40:43;;;;;;;5.17;4.67;;;15.90;55.90;;;;;;5096847;28;20857;-74
2021/03/30 08:43:21;;;;;;;6.40;4.23;;;16.10;55.30;;;;;;5096347;28;20966;-74
2021/03/30 08:46:01;;;;;;;6.60;4.20;;;16.40;55.20;;;;;;5097317;28;20446;-78
2021/03/30 08:48:33;;;;;;;4.20;3.80;;;16.60;55.00;;;;;;5096551;28;20448;-78
2021/03/30 08:51:00;;;;;;;4.33;3.93;;;16.70;55.30;;;;;;5096438;28;20839;-78
2021/03/30 08:53:29;;;;;;;8.80;4.00;;;17.00;54.20;;;;;;5096678;28;20485;-78
2021/03/30 08:55:56;;;;;;;5.10;3.27;;;17.30;53.60;;;;;;5096601;28;20439;-78
2021/03/30 08:58:26;;;;;;;4.30;3.00;;;17.80;51.20;;;;;;5096550;28;20467;-79
2021/03/30 09:00:55;;;;;;;2.87;2.63;;;18.30;49.90;;;;;;5096202;28;20946;-78
2021/03/30 09:03:26;;;;;;;2.93;2.60;;;19.20;49.40;;;;;;5096218;28;20892;-78
2021/03/30 09:05:53;;;;;;;8.10;3.17;;;20.50;46.00;;;;;;5096584;28;20443;-78
2021/03/30 09:08:38;;;;;;;3.80;3.27;;;22.80;44.30;;;;;;5096331;28;20539;-78
2021/03/30 09:11:17;;;;;;;4.47;3.33;;;25.00;41.70;;;;;;5096353;28;20427;-79
2021/03/30 09:14:00;;;;;;;3.35;3.05;;;27.00;36.60;;;;;;5096286;28;20202;-79
2021/03/30 09:16:27;;;;;;;14.00;3.92;;;28.60;34.20;;;;;;5096254;28;20559;-79
2021/03/30 09:19:16;;;;;;;2.88;2.60;;;29.20;32.20;;;;;;5096094;28;20229;-79
2021/03/30 09:21:45;;;;;;;2.75;2.45;;;29.70;29.70;;;;;;5096549;28;20259;-79
2021/03/30 09:24:21;;;;;;;3.65;2.88;;;29.80;29.10;;;;;;5096056;28;20182;-79
2021/03/30 09:26:49;;;;;;;3.17;2.70;;;29.80;29.10;;;;;;5095671;28;20547;-79
2021/03/30 09:29:17;;;;;;;2.53;2.42;;;30.40;29.50;;;;;;5096019;28;20229;-81
2021/03/30 09:31:45;;;;;;;3.65;2.30;;;30.90;27.60;;;;;;5095840;28;20627;-81
2021/03/30 09:34:12;;;;;;;2.47;2.38;;;31.20;27.00;;;;;;5095980;28;20211;-81
2021/03/30 09:36:43;;;;;;;2.75;2.55;;;31.90;26.10;;;;;;5095664;28;20235;-80
2021/03/30 09:39:28;;;;;;;2.80;2.60;;;31.60;25.20;;;;;;5095828;28;20573;-81
2021/03/30 09:41:56;;;;;;;2.72;2.53;;;32.20;24.90;;;;;;5095784;28;20209;-80
2021/03/30 09:44:24;;;;;;;3.08;2.67;;;32.70;23.80;;;;;;5095866;28;20554;-80
2021/03/30 09:46:54;;;;;;;2.58;2.47;;;33.20;24.40;;;;;;5095467;28;20272;-79
2021/03/30 09:49:22;;;;;;;2.80;2.60;;;34.00;24.50;;;;;;5096200;28;20237;-80
2021/03/30 09:51:49;;;;;;;2.17;2.08;;;34.60;23.30;;;;;;5095991;28;20183;-79
2021/03/30 09:54:19;;;;;;;3.15;2.45;;;34.50;22.60;;;;;;5096184;28;20207;-80
2021/03/30 09:56:46;;;;;;;2.90;2.75;;;34.70;23.40;;;;;;5095966;28;20191;-80
2021/03/30 09:59:17;;;;;;;3.25;3.05;;;34.30;22.80;;;;;;5095094;28;20220;-80
2021/03/30 10:01:44;;;;;;;3.38;2.97;;;33.50;22.60;;;;;;5095245;28;20205;-79
2021/03/30 10:04:11;;;;;;;2.60;2.40;;;32.70;23.10;;;;;;5095340;28;20198;-79
2021/03/30 10:06:38;;;;;;;3.03;2.83;;;31.90;23.90;;;;;;5095102;28;20643;-80
2021/03/30 10:09:05;;;;;;;2.80;2.60;;;31.90;23.90;;;;;;5095269;28;20238;-80
2021/03/30 10:11:31;;;;;;;4.60;2.97;;;31.60;24.70;;;;;;5094932;28;20657;-79
2021/03/30 10:14:24;;;;;;;2.88;2.67;;;31.50;24.20;;;;;;5095476;28;20188;-79
2021/03/30 10:16:53;;;;;;;3.03;2.83;;;31.40;24.80;;;;;;5094723;28;20695;-80
2021/03/30 10:19:21;;;;;;;2.78;2.58;;;31.60;24.10;;;;;;5095056;28;20636;-79
2021/03/30 10:21:52;;;;;;;2.65;2.47;;;32.00;23.80;;;;;;5094761;28;20227;-79
2021/03/30 10:24:19;;;;;;;4.75;2.50;;;31.80;23.80;;;;;;5094940;28;20197;-80
2021/03/30 10:27:06;;;;;;;3.17;2.88;;;31.50;23.70;;;;;;5094655;28;20629;-78
2021/03/30 10:29:37;;;;;;;2.20;2.03;;;31.60;23.90;;;;;;5094713;28;20227;-80
2021/03/30 10:32:11;;;;;;;3.40;3.10;;;31.50;24.10;;;;;;5094944;28;20185;-81
2021/03/30 10:34:38;;;;;;;1.85;1.70;;;31.70;24.20;;;;;;5094482;28;20276;-81
2021/03/30 10:37:07;;;;;;;4.40;3.05;;;31.70;24.10;;;;;;5094773;28;20208;-80
2021/03/30 10:39:36;;;;;;;1.80;1.70;;;31.90;24.30;;;;;;5094260;28;20274;-81
2021/03/30 10:42:06;;;;;;;2.15;1.95;;;31.80;26.30;;;;;;5094727;28;20220;-80
2021/03/30 10:44:36;;;;;;;2.10;1.90;;;32.10;24.50;;;;;;5094246;28;20707;-80
2021/03/30 10:47:18;;;;;;;2.13;2.03;;;32.00;24.70;;;;;;5093974;28;20235;-78
2021/03/30 10:49:46;;;;;;;1.80;1.50;;;32.80;23.70;;;;;;5094468;28;20219;-78
2021/03/30 10:52:18;;;;;;;1.80;1.70;;;32.60;24.00;;;;;;5094500;28;20187;-78
2021/03/30 10:54:45;;;;;;;2.15;2.05;;;33.00;23.20;;;;;;5094659;28;20213;-78
2021/03/30 10:57:14;;;;;;;2.03;1.92;;;33.70;23.60;;;;;;5094114;28;20657;-80
2021/03/30 10:59:41;;;;;;;1.80;1.70;;;34.80;22.40;;;;;;5094370;28;20227;-79
2021/03/30 11:02:07;;;;;;;3.65;2.72;;;35.50;22.20;;;;;;5093959;28;20274;-78
2021/03/30 11:04:34;;;;;;;2.03;1.92;;;35.60;22.00;;;;;;5094234;28;20193;-78
2021/03/30 11:07:01;;;;;;;2.58;2.22;;;35.30;22.20;;;;;;5094404;28;20193;-80
2021/03/30 11:09:27;;;;;;;2.25;1.95;;;34.20;22.90;;;;;;5093904;28;20223;-80
2021/03/30 11:11:54;;;;;;;2.15;2.05;;;33.00;23.00;;;;;;5094073;28;20185;-79
2021/03/30 11:14:21;;;;;;;2.03;1.88;;;31.40;24.20;;;;;;5093760;28;20586;-80
2021/03/30 11:16:47;;;;;;;3.15;2.10;;;29.90;25.00;;;;;;5093847;28;20564;-79
2021/03/30 11:19:14;;;;;;;2.17;1.73;;;28.70;26.00;;;;;;5093651;28;20247;-79
2021/03/30 11:21:41;;;;;;;2.30;2.10;;;28.00;27.10;;;;;;5093887;28;20243;-78
2021/03/30 11:24:12;;;;;;;2.35;2.15;;;27.50;27.00;;;;;;5093782;28;20247;-78
2021/03/30 11:26:39;;;;;;;2.25;2.10;;;27.10;26.80;;;;;;5093502;28;20182;-78
2021/03/30 11:29:08;;;;;;;2.00;1.90;;;26.80;27.40;;;;;;5093370;28;20224;-77
2021/03/30 11:31:54;;;;;;;2.65;1.98;;;26.30;27.70;;;;;;5094427;28;20193;-77
2021/03/30 11:34:24;;;;;;;4.18;1.80;;;25.90;28.40;;;;;;5093727;28;20262;-77
2021/03/30 11:36:59;;;;;;;1.95;1.85;;;25.60;27.90;;;;;;5093719;28;20185;-79
2021/03/30 11:39:25;;;;;;;1.95;1.70;;;25.40;28.40;;;;;;5093682;28;20263;-79
2021/03/30 11:41:51;;;;;;;2.88;1.70;;;25.20;28.50;;;;;;5093578;28;20201;-79
2021/03/30 11:44:18;;;;;;;2.08;1.50;;;25.00;26.70;;;;;;5093642;28;20193;-79
2021/03/30 11:46:44;;;;;;;3.90;1.80;;;24.90;27.40;;;;;;5093239;28;20239;-79
2021/03/30 11:49:10;;;;;;;2.30;1.63;;;24.70;27.90;;;;;;5093533;28;20229;-79
2021/03/30 11:51:36;;;;;;;1.70;1.55;;;24.40;27.70;;;;;;5093934;28;20198;-79
2021/03/30 11:54:04;;;;;;;8.30;1.80;;;24.30;28.00;;;;;;5093577;28;20190;-80
2021/03/30 11:56:30;;;;;;;1.60;1.33;;;24.20;27.80;;;;;;5093193;28;20549;-79
2021/03/30 11:58:56;;;;;;;1.98;1.35;;;24.10;28.50;;;;;;5096023;28;20590;-79
2021/03/30 12:01:22;;;;;;;1.92;1.45;;;24.10;27.80;;;;;;5097596;28;20656;-77
2021/03/30 12:03:49;;;;;;;4.15;1.75;;;24.20;28.10;;;;;;5097362;28;20644;-77
2021/03/30 12:06:15;;;;;;;1.40;1.30;;;24.10;27.20;;;;;;5097300;28;20645;-77
2021/03/30 12:08:41;;;;;;;1.50;1.40;;;23.90;26.00;;;;;;5097248;28;20256;-77
2021/03/30 12:11:08;;;;;;;3.33;1.30;;;23.90;26.20;;;;;;5097526;28;20242;-77
2021/03/30 12:13:35;;;;;;;4.03;1.30;;;23.80;26.00;;;;;;5097507;28;20561;-79
2021/03/30 12:16:01;;;;;;;1.40;1.30;;;23.80;26.10;;;;;;5097148;28;20645;-80
2021/03/30 12:18:28;;;;;;;1.47;1.37;;;23.70;26.20;;;;;;5097432;28;20491;-79
2021/03/30 12:20:55;;;;;;;2.40;1.30;;;23.40;27.00;;;;;;5098025;28;20450;-79
2021/03/30 12:23:21;;;;;;;2.03;1.87;;;23.40;27.80;;;;;;5097229;28;20978;-79
2021/03/30 12:25:48;;;;;;;1.30;1.30;;;23.20;27.00;;;;;;5097021;28;20977;-79
2021/03/30 12:28:15;;;;;;;1.57;1.30;;;23.10;27.70;;;;;;5096778;28;20982;-79
2021/03/30 12:30:42;;;;;;;1.57;1.47;;;23.00;27.60;;;;;;5097024;28;20428;-79
2021/03/30 12:33:09;;;;;;;5.53;1.80;;;22.80;28.00;;;;;;5097297;28;20431;-79
2021/03/30 12:35:35;;;;;;;1.40;1.30;;;22.80;28.40;;;;;;5096744;28;20802;-79
2021/03/30 12:38:02;;;;;;;1.63;1.47;;;22.60;27.80;;;;;;5097022;28;20454;-79
2021/03/30 12:40:30;;;;;;;1.70;1.60;;;22.60;27.90;;;;;;5097460;28;20439;-80
2021/03/30 12:42:56;;;;;;;1.30;1.20;;;22.50;27.90;;;;;;5096910;28;20467;-80
2021/03/30 12:45:24;;;;;;;3.03;1.80;;;22.40;28.10;;;;;;5096954;28;20436;-80
2021/03/30 12:47:50;;;;;;;3.20;1.93;;;22.30;27.90;;;;;;5096485;28;20470;-80
2021/03/30 12:50:16;;;;;;;1.90;1.70;;;22.10;28.60;;;;;;5096833;28;20436;-80
2021/03/30 12:52:43;;;;;;;2.17;1.70;;;22.00;28.70;;;;;;5096735;28;20431;-80
2021/03/30 12:55:11;;;;;;;1.73;1.63;;;21.90;28.40;;;;;;5096494;28;20435;-80
2021/03/30 12:57:37;;;;;;;3.10;1.50;;;22.00;27.70;;;;;;5096626;28;20424;-78
2021/03/30 13:00:06;;;;;;;1.60;1.50;;;21.90;28.40;;;;;;5096722;28;20436;-79
2021/03/30 13:02:33;;;;;;;1.60;1.50;;;21.80;29.50;;;;;;5096666;28;20468;-79
2021/03/30 13:04:59;;;;;;;1.73;1.63;;;21.60;30.00;;;;;;5097695;28;20431;-80
2021/03/30 13:07:26;;;;;;;1.80;1.70;;;21.40;30.70;;;;;;5099696;28;20911;-81